sensor_id;sensor_type;location;lat;lon;timestamp;pressure;altitude;pressure_sealevel;temperature;humidity
55424;BME280;41294;42.666;23.350;2023-02-14T00:00:18;96442.84;;;4.09;72.94
55424;BME280;41294;42.666;23.350;2023-02-14T00:02:46;96445.38;;;4.02;72.92
55424;BME280;41294;42.666;23.350;2023-02-14T00:05:11;96452.09;;;4.03;72.88
55424;BME280;41294;42.666;23.350;2023-02-14T00:07:36;96439.44;;;4.02;73.41
55424;BME280;41294;42.666;23.350;2023-02-14T00:10:02;96438.34;;;4.03;73.17
55424;BME280;41294;42.666;23.350;2023-02-14T00:12:27;96436.84;;;4.02;73.19
55424;BME280;41294;42.666;23.350;2023-02-14T00:14:53;96432.69;;;3.97;73.27
55424;BME280;41294;42.666;23.350;2023-02-14T00:17:37;96442.75;;;3.99;73.19
55424;BME280;41294;42.666;23.350;2023-02-14T00:20:02;96445.38;;;4.02;73.11
55424;BME280;41294;42.666;23.350;2023-02-14T00:22:28;96450.28;;;4.07;72.85
55424;BME280;41294;42.666;23.350;2023-02-14T00:24:53;96443.91;;;4.04;72.91
55424;BME280;41294;42.666;23.350;2023-02-14T00:27:19;96433.16;;;4.06;73.23
55424;BME280;41294;42.666;23.350;2023-02-14T00:29:44;96439.47;;;4.05;73.07
55424;BME280;41294;42.666;23.350;2023-02-14T00:32:09;96432.84;;;4.14;72.71
55424;BME280;41294;42.666;23.350;2023-02-14T00:34:35;96438.41;;;4.09;73.30
55424;BME280;41294;42.666;23.350;2023-02-14T00:37:01;96426.50;;;4.12;73.39
55424;BME280;41294;42.666;23.350;2023-02-14T00:39:27;96439.50;;;4.08;73.49
55424;BME280;41294;42.666;23.350;2023-02-14T00:41:52;96429.94;;;4.19;73.34
55424;BME280;41294;42.666;23.350;2023-02-14T00:44:17;96431.03;;;4.18;73.39
55424;BME280;41294;42.666;23.350;2023-02-14T00:46:43;96425.09;;;4.21;73.44
55424;BME280;41294;42.666;23.350;2023-02-14T00:49:08;96432.59;;;4.26;73.09
55424;BME280;41294;42.666;23.350;2023-02-14T00:51:34;96426.69;;;4.33;72.59
55424;BME280;41294;42.666;23.350;2023-02-14T00:53:59;96437.13;;;4.33;72.96
55424;BME280;41294;42.666;23.350;2023-02-14T00:56:26;96429.31;;;4.33;73.00
55424;BME280;41294;42.666;23.350;2023-02-14T00:58:51;96413.97;;;4.28;72.83
55424;BME280;41294;42.666;23.350;2023-02-14T01:01:17;96415.47;;;4.29;72.86
55424;BME280;41294;42.666;23.350;2023-02-14T01:03:43;96419.16;;;4.21;73.09
55424;BME280;41294;42.666;23.350;2023-02-14T01:06:08;96410.22;;;4.22;73.18
55424;BME280;41294;42.666;23.350;2023-02-14T01:08:35;96407.28;;;4.27;72.93
55424;BME280;41294;42.666;23.350;2023-02-14T01:11:13;96409.50;;;4.25;73.15
55424;BME280;41294;42.666;23.350;2023-02-14T01:13:40;96410.97;;;4.26;72.62
55424;BME280;41294;42.666;23.350;2023-02-14T01:16:07;96401.59;;;4.14;73.57
55424;BME280;41294;42.666;23.350;2023-02-14T01:18:33;96408.69;;;4.17;73.32
55424;BME280;41294;42.666;23.350;2023-02-14T01:21:18;96405.31;;;4.17;73.34
55424;BME280;41294;42.666;23.350;2023-02-14T01:23:46;96406.13;;;4.21;73.14
55424;BME280;41294;42.666;23.350;2023-02-14T01:26:12;96397.59;;;4.24;72.59
55424;BME280;41294;42.666;23.350;2023-02-14T01:28:38;96387.44;;;4.15;73.02
55424;BME280;41294;42.666;23.350;2023-02-14T01:31:14;96396.28;;;4.04;73.73
55424;BME280;41294;42.666;23.350;2023-02-14T01:33:41;96389.63;;;4.10;73.45
55424;BME280;41294;42.666;23.350;2023-02-14T01:36:14;96392.34;;;4.20;73.25
55424;BME280;41294;42.666;23.350;2023-02-14T01:38:40;96385.94;;;4.14;73.04
55424;BME280;41294;42.666;23.350;2023-02-14T01:41:05;96372.13;;;4.07;73.33
55424;BME280;41294;42.666;23.350;2023-02-14T01:43:31;96363.94;;;4.05;73.69
55424;BME280;41294;42.666;23.350;2023-02-14T01:45:56;96363.88;;;3.98;73.65
55424;BME280;41294;42.666;23.350;2023-02-14T01:48:23;96363.47;;;3.96;73.94
55424;BME280;41294;42.666;23.350;2023-02-14T01:50:51;96360.88;;;3.96;73.48
55424;BME280;41294;42.666;23.350;2023-02-14T01:53:23;96349.75;;;3.99;73.72
55424;BME280;41294;42.666;23.350;2023-02-14T01:55:55;96358.72;;;4.05;73.53
55424;BME280;41294;42.666;23.350;2023-02-14T01:58:24;96356.81;;;4.02;73.35
55424;BME280;41294;42.666;23.350;2023-02-14T02:00:50;96356.06;;;3.98;73.44
55424;BME280;41294;42.666;23.350;2023-02-14T02:03:33;96354.63;;;4.04;73.46
55424;BME280;41294;42.666;23.350;2023-02-14T02:09:30;96357.22;;;4.04;73.34
55424;BME280;41294;42.666;23.350;2023-02-14T02:11:57;96360.91;;;4.00;73.27
55424;BME280;41294;42.666;23.350;2023-02-14T02:14:23;96353.16;;;4.06;73.08
55424;BME280;41294;42.666;23.350;2023-02-14T02:28:31;96349.03;;;4.05;73.26
55424;BME280;41294;42.666;23.350;2023-02-14T02:44:55;96308.03;;;3.96;73.48
55424;BME280;41294;42.666;23.350;2023-02-14T02:56:05;96315.50;;;3.97;73.08
55424;BME280;41294;42.666;23.350;2023-02-14T02:58:56;96317.72;;;3.95;73.08
55424;BME280;41294;42.666;23.350;2023-02-14T03:01:27;96315.09;;;3.95;73.16
55424;BME280;41294;42.666;23.350;2023-02-14T03:03:57;96319.59;;;3.98;73.11
55424;BME280;41294;42.666;23.350;2023-02-14T03:06:44;96319.22;;;3.96;73.28
55424;BME280;41294;42.666;23.350;2023-02-14T03:13:00;96325.09;;;3.90;73.38
55424;BME280;41294;42.666;23.350;2023-02-14T03:17:58;96319.19;;;3.93;73.57
55424;BME280;41294;42.666;23.350;2023-02-14T03:20:56;96326.59;;;3.91;73.54
55424;BME280;41294;42.666;23.350;2023-02-14T03:23:33;96314.72;;;3.93;73.40
55424;BME280;41294;42.666;23.350;2023-02-14T03:26:16;96315.81;;;3.92;73.52
55424;BME280;41294;42.666;23.350;2023-02-14T03:31:18;96294.97;;;3.92;73.77
55424;BME280;41294;42.666;23.350;2023-02-14T03:33:51;96290.94;;;3.95;73.60
55424;BME280;41294;42.666;23.350;2023-02-14T03:36:22;96292.38;;;3.92;73.47
55424;BME280;41294;42.666;23.350;2023-02-14T03:39:03;96287.94;;;3.93;73.41
55424;BME280;41294;42.666;23.350;2023-02-14T03:41:35;96289.41;;;3.90;73.18
55424;BME280;41294;42.666;23.350;2023-02-14T03:44:04;96294.53;;;3.83;73.23
55424;BME280;41294;42.666;23.350;2023-02-14T03:46:38;96292.28;;;3.78;73.61
55424;BME280;41294;42.666;23.350;2023-02-14T03:49:09;96288.91;;;3.78;73.55
55424;BME280;41294;42.666;23.350;2023-02-14T03:51:37;96279.66;;;3.80;73.43
55424;BME280;41294;42.666;23.350;2023-02-14T03:54:06;96282.59;;;3.79;73.38
55424;BME280;41294;42.666;23.350;2023-02-14T03:56:38;96280.28;;;3.63;74.20
55424;BME280;41294;42.666;23.350;2023-02-14T03:59:16;96281.38;;;3.62;74.28
55424;BME280;41294;42.666;23.350;2023-02-14T04:01:49;96265.41;;;3.67;73.81
55424;BME280;41294;42.666;23.350;2023-02-14T04:04:20;96257.59;;;3.67;73.81
55424;BME280;41294;42.666;23.350;2023-02-14T04:06:47;96261.66;;;3.61;73.85
55424;BME280;41294;42.666;23.350;2023-02-14T04:09:12;96249.06;;;3.67;73.77
55424;BME280;41294;42.666;23.350;2023-02-14T04:11:38;96256.44;;;3.61;73.93
55424;BME280;41294;42.666;23.350;2023-02-14T04:14:04;96255.75;;;3.68;73.41
55424;BME280;41294;42.666;23.350;2023-02-14T04:16:30;96256.09;;;3.66;73.41
55424;BME280;41294;42.666;23.350;2023-02-14T04:19:15;96263.84;;;3.56;74.06
55424;BME280;41294;42.666;23.350;2023-02-14T04:21:46;96270.56;;;3.60;73.89
55424;BME280;41294;42.666;23.350;2023-02-14T04:24:12;96266.91;;;3.68;73.63
55424;BME280;41294;42.666;23.350;2023-02-14T04:26:37;96272.84;;;3.69;73.61
55424;BME280;41294;42.666;23.350;2023-02-14T04:29:03;96273.97;;;3.68;73.35
55424;BME280;41294;42.666;23.350;2023-02-14T04:31:29;96265.00;;;3.65;73.54
55424;BME280;41294;42.666;23.350;2023-02-14T04:33:56;96264.69;;;3.67;73.16
55424;BME280;41294;42.666;23.350;2023-02-14T04:36:21;96269.88;;;3.67;72.82
55424;BME280;41294;42.666;23.350;2023-02-14T04:38:46;96266.91;;;3.68;73.04
55424;BME280;41294;42.666;23.350;2023-02-14T04:41:12;96264.34;;;3.75;72.96
55424;BME280;41294;42.666;23.350;2023-02-14T04:43:37;96257.34;;;3.79;72.47
55424;BME280;41294;42.666;23.350;2023-02-14T04:46:03;96244.28;;;3.72;72.79
55424;BME280;41294;42.666;23.350;2023-02-14T04:48:28;96238.63;;;3.63;72.50
55424;BME280;41294;42.666;23.350;2023-02-14T04:50:54;96239.00;;;3.65;72.57
55424;BME280;41294;42.666;23.350;2023-02-14T04:53:20;96243.09;;;3.66;72.59
55424;BME280;41294;42.666;23.350;2023-02-14T04:55:48;96237.94;;;3.73;72.16
55424;BME280;41294;42.666;23.350;2023-02-14T04:58:14;96241.59;;;3.65;72.61
55424;BME280;41294;42.666;23.350;2023-02-14T05:00:39;96238.66;;;3.67;72.54
55424;BME280;41294;42.666;23.350;2023-02-14T05:03:04;96242.75;;;3.68;72.46
55424;BME280;41294;42.666;23.350;2023-02-14T05:05:30;96247.53;;;3.62;72.66
55424;BME280;41294;42.666;23.350;2023-02-14T05:07:55;96240.09;;;3.64;72.69
55424;BME280;41294;42.666;23.350;2023-02-14T05:10:21;96243.13;;;3.70;72.70
55424;BME280;41294;42.666;23.350;2023-02-14T05:12:46;96234.88;;;3.64;72.90
55424;BME280;41294;42.666;23.350;2023-02-14T05:15:11;96234.53;;;3.66;72.67
55424;BME280;41294;42.666;23.350;2023-02-14T05:17:38;96243.13;;;3.70;72.60
55424;BME280;41294;42.666;23.350;2023-02-14T05:20:04;96247.63;;;3.76;72.26
55424;BME280;41294;42.666;23.350;2023-02-14T05:22:30;96236.06;;;3.70;72.38
55424;BME280;41294;42.666;23.350;2023-02-14T05:24:56;96234.25;;;3.78;72.26
55424;BME280;41294;42.666;23.350;2023-02-14T05:27:21;96235.03;;;3.82;71.81
55424;BME280;41294;42.666;23.350;2023-02-14T05:29:46;96232.81;;;3.84;71.83
55424;BME280;41294;42.666;23.350;2023-02-14T05:32:12;96233.22;;;3.89;71.77
55424;BME280;41294;42.666;23.350;2023-02-14T05:34:37;96237.25;;;3.83;71.75
55424;BME280;41294;42.666;23.350;2023-02-14T05:37:02;96241.78;;;3.90;71.52
55424;BME280;41294;42.666;23.350;2023-02-14T05:39:28;96237.31;;;3.90;71.77
55424;BME280;41294;42.666;23.350;2023-02-14T05:41:53;96236.59;;;3.93;71.19
55424;BME280;41294;42.666;23.350;2023-02-14T05:44:20;96231.06;;;3.98;71.36
55424;BME280;41294;42.666;23.350;2023-02-14T05:46:46;96238.03;;;3.87;71.38
55424;BME280;41294;42.666;23.350;2023-02-14T05:49:11;96226.53;;;3.92;71.35
55424;BME280;41294;42.666;23.350;2023-02-14T05:51:36;96224.84;;;4.23;70.52
55424;BME280;41294;42.666;23.350;2023-02-14T05:54:02;96226.78;;;4.37;69.30
55424;BME280;41294;42.666;23.350;2023-02-14T05:56:28;96226.53;;;4.63;68.77
55424;BME280;41294;42.666;23.350;2023-02-14T05:58:53;96229.53;;;4.72;68.51
55424;BME280;41294;42.666;23.350;2023-02-14T06:01:18;96225.22;;;5.69;65.23
55424;BME280;41294;42.666;23.350;2023-02-14T06:03:44;96228.06;;;6.55;62.50
55424;BME280;41294;42.666;23.350;2023-02-14T06:06:09;96223.44;;;6.87;60.60
55424;BME280;41294;42.666;23.350;2023-02-14T06:08:35;96231.97;;;7.59;58.12
55424;BME280;41294;42.666;23.350;2023-02-14T06:11:01;96236.88;;;7.53;57.78
55424;BME280;41294;42.666;23.350;2023-02-14T06:13:27;96236.22;;;6.67;59.89
55424;BME280;41294;42.666;23.350;2023-02-14T06:15:52;96240.84;;;6.18;61.89
55424;BME280;41294;42.666;23.350;2023-02-14T06:18:19;96237.16;;;5.91;62.51
55424;BME280;41294;42.666;23.350;2023-02-14T06:20:44;96246.78;;;6.40;61.41
55424;BME280;41294;42.666;23.350;2023-02-14T06:23:09;96236.94;;;6.78;60.88
55424;BME280;41294;42.666;23.350;2023-02-14T06:25:35;96237.78;;;6.58;60.27
55424;BME280;41294;42.666;23.350;2023-02-14T06:28:00;96249.06;;;6.27;61.38
55424;BME280;41294;42.666;23.350;2023-02-14T06:30:26;96249.84;;;6.07;62.55
55424;BME280;41294;42.666;23.350;2023-02-14T06:32:52;96242.03;;;6.00;62.83
55424;BME280;41294;42.666;23.350;2023-02-14T06:35:17;96240.53;;;5.99;63.07
55424;BME280;41294;42.666;23.350;2023-02-14T06:37:43;96239.41;;;5.86;63.10
55424;BME280;41294;42.666;23.350;2023-02-14T06:40:10;96245.41;;;5.83;63.83
55424;BME280;41294;42.666;23.350;2023-02-14T06:42:36;96239.41;;;5.93;63.48
55424;BME280;41294;42.666;23.350;2023-02-14T06:45:02;96236.06;;;5.82;63.96
55424;BME280;41294;42.666;23.350;2023-02-14T06:47:27;96245.41;;;5.86;63.49
55424;BME280;41294;42.666;23.350;2023-02-14T06:49:53;96228.22;;;5.89;63.81
55424;BME280;41294;42.666;23.350;2023-02-14T06:52:18;96223.75;;;5.79;64.32
55424;BME280;41294;42.666;23.350;2023-02-14T06:54:44;96229.72;;;5.83;64.50
55424;BME280;41294;42.666;23.350;2023-02-14T06:57:09;96228.19;;;5.68;64.68
55424;BME280;41294;42.666;23.350;2023-02-14T06:59:35;96229.69;;;5.76;64.87
55424;BME280;41294;42.666;23.350;2023-02-14T07:02:00;96220.75;;;5.56;65.69
55424;BME280;41294;42.666;23.350;2023-02-14T07:04:26;96222.97;;;5.61;65.96
55424;BME280;41294;42.666;23.350;2023-02-14T07:06:51;96234.53;;;5.57;66.41
55424;BME280;41294;42.666;23.350;2023-02-14T07:09:18;96211.78;;;5.50;66.19
55424;BME280;41294;42.666;23.350;2023-02-14T07:11:44;96206.56;;;5.43;66.67
55424;BME280;41294;42.666;23.350;2023-02-14T07:14:10;96214.00;;;5.45;67.28
55424;BME280;41294;42.666;23.350;2023-02-14T07:16:35;96221.50;;;5.46;67.00
55424;BME280;41294;42.666;23.350;2023-02-14T07:19:01;96228.94;;;5.51;67.30
55424;BME280;41294;42.666;23.350;2023-02-14T07:21:26;96223.34;;;5.49;68.09
55424;BME280;41294;42.666;23.350;2023-02-14T07:23:51;96220.72;;;5.49;67.95
55424;BME280;41294;42.666;23.350;2023-02-14T07:26:17;96222.59;;;5.42;69.09
55424;BME280;41294;42.666;23.350;2023-02-14T07:28:44;96219.22;;;5.41;69.20
55424;BME280;41294;42.666;23.350;2023-02-14T07:31:10;96231.94;;;5.43;69.86
55424;BME280;41294;42.666;23.350;2023-02-14T07:33:36;96239.38;;;5.37;69.74
55424;BME280;41294;42.666;23.350;2023-02-14T07:36:05;96222.56;;;5.24;71.24
55424;BME280;41294;42.666;23.350;2023-02-14T07:38:31;96239.34;;;5.16;72.34
55424;BME280;41294;42.666;23.350;2023-02-14T07:40:56;96231.50;;;5.16;72.97
55424;BME280;41294;42.666;23.350;2023-02-14T07:43:21;96237.09;;;5.04;73.55
55424;BME280;41294;42.666;23.350;2023-02-14T07:45:47;96237.84;;;5.05;74.16
55424;BME280;41294;42.666;23.350;2023-02-14T07:48:14;96236.00;;;5.19;74.14
55424;BME280;41294;42.666;23.350;2023-02-14T07:50:39;96243.81;;;5.12;74.47
55424;BME280;41294;42.666;23.350;2023-02-14T07:53:04;96243.06;;;5.15;74.71
55424;BME280;41294;42.666;23.350;2023-02-14T07:55:32;96249.00;;;5.05;75.23
55424;BME280;41294;42.666;23.350;2023-02-14T07:57:57;96247.13;;;4.95;76.12
55424;BME280;41294;42.666;23.350;2023-02-14T08:00:23;96255.72;;;5.03;76.60
55424;BME280;41294;42.666;23.350;2023-02-14T08:02:48;96262.03;;;5.05;75.99
55424;BME280;41294;42.666;23.350;2023-02-14T08:05:14;96255.34;;;5.04;76.29
55424;BME280;41294;42.666;23.350;2023-02-14T08:07:39;96263.56;;;5.13;75.94
55424;BME280;41294;42.666;23.350;2023-02-14T08:10:05;96269.16;;;5.15;76.18
55424;BME280;41294;42.666;23.350;2023-02-14T08:12:31;96267.66;;;5.14;76.20
55424;BME280;41294;42.666;23.350;2023-02-14T08:15:15;96272.13;;;5.10;76.75
55424;BME280;41294;42.666;23.350;2023-02-14T08:17:59;96261.69;;;5.03;76.65
55424;BME280;41294;42.666;23.350;2023-02-14T08:20:24;96272.13;;;5.03;76.33
55424;BME280;41294;42.666;23.350;2023-02-14T08:22:50;96269.91;;;5.12;76.53
55424;BME280;41294;42.666;23.350;2023-02-14T08:25:15;96275.88;;;5.09;76.39
55424;BME280;41294;42.666;23.350;2023-02-14T08:27:40;96281.09;;;5.20;76.19
55424;BME280;41294;42.666;23.350;2023-02-14T08:30:06;96265.81;;;5.15;76.45
55424;BME280;41294;42.666;23.350;2023-02-14T08:32:32;96272.53;;;5.16;76.01
55424;BME280;41294;42.666;23.350;2023-02-14T08:34:58;96264.69;;;5.12;76.12
55424;BME280;41294;42.666;23.350;2023-02-14T08:37:23;96257.25;;;5.21;75.34
55424;BME280;41294;42.666;23.350;2023-02-14T08:39:49;96255.38;;;5.15;75.56
55424;BME280;41294;42.666;23.350;2023-02-14T08:42:14;96258.72;;;5.12;75.99
55424;BME280;41294;42.666;23.350;2023-02-14T08:44:39;96277.69;;;5.05;76.44
55424;BME280;41294;42.666;23.350;2023-02-14T08:47:05;96282.19;;;5.05;76.87
55424;BME280;41294;42.666;23.350;2023-02-14T08:49:30;96278.88;;;5.15;76.74
55424;BME280;41294;42.666;23.350;2023-02-14T08:51:55;96262.44;;;5.14;76.75
55424;BME280;41294;42.666;23.350;2023-02-14T08:54:21;96266.53;;;5.01;77.47
55424;BME280;41294;42.666;23.350;2023-02-14T08:56:46;96281.47;;;5.22;76.75
55424;BME280;41294;42.666;23.350;2023-02-14T08:59:12;96278.88;;;5.18;76.80
55424;BME280;41294;42.666;23.350;2023-02-14T09:01:38;96267.66;;;5.04;77.79
55424;BME280;41294;42.666;23.350;2023-02-14T09:04:03;96282.56;;;5.10;78.07
55424;BME280;41294;42.666;23.350;2023-02-14T09:06:29;96272.13;;;5.03;78.10
55424;BME280;41294;42.666;23.350;2023-02-14T09:08:54;96273.97;;;5.06;78.31
55424;BME280;41294;42.666;23.350;2023-02-14T09:11:22;96266.19;;;5.17;77.75
55424;BME280;41294;42.666;23.350;2023-02-14T09:13:49;96265.44;;;5.13;78.01
55424;BME280;41294;42.666;23.350;2023-02-14T09:16:17;96260.97;;;5.20;77.73
55424;BME280;41294;42.666;23.350;2023-02-14T09:18:46;96245.28;;;5.13;77.89
55424;BME280;41294;42.666;23.350;2023-02-14T09:21:17;96250.50;;;5.06;78.18
55424;BME280;41294;42.666;23.350;2023-02-14T09:23:42;96246.44;;;5.19;77.88
55424;BME280;41294;42.666;23.350;2023-02-14T09:26:10;96243.06;;;5.15;77.98
55424;BME280;41294;42.666;23.350;2023-02-14T09:28:36;96247.16;;;5.09;77.54
55424;BME280;41294;42.666;23.350;2023-02-14T09:33:33;96243.06;;;5.05;78.09
55424;BME280;41294;42.666;23.350;2023-02-14T09:35:58;96256.47;;;5.10;77.21
55424;BME280;41294;42.666;23.350;2023-02-14T09:38:42;96260.22;;;5.13;77.21
55424;BME280;41294;42.666;23.350;2023-02-14T09:41:09;96249.00;;;5.05;77.26
55424;BME280;41294;42.666;23.350;2023-02-14T09:46:50;96251.97;;;4.90;77.52
55424;BME280;41294;42.666;23.350;2023-02-14T09:49:28;96247.47;;;4.84;77.88
55424;BME280;41294;42.666;23.350;2023-02-14T09:51:56;96242.25;;;4.90;77.47
55424;BME280;41294;42.666;23.350;2023-02-14T09:54:26;96242.97;;;4.81;77.57
55424;BME280;41294;42.666;23.350;2023-02-14T10:07:55;96227.78;;;5.03;76.67
55424;BME280;41294;42.666;23.350;2023-02-14T10:10:26;96229.66;;;5.17;76.38
55424;BME280;41294;42.666;23.350;2023-02-14T10:13:00;96225.91;;;5.18;76.75
55424;BME280;41294;42.666;23.350;2023-02-14T10:15:37;96222.94;;;5.12;76.02
55424;BME280;41294;42.666;23.350;2023-02-14T10:18:40;96217.34;;;5.10;76.04
55424;BME280;41294;42.666;23.350;2023-02-14T10:21:08;96219.97;;;5.14;75.86
55424;BME280;41294;42.666;23.350;2023-02-14T10:23:50;96219.56;;;5.08;76.27
55424;BME280;41294;42.666;23.350;2023-02-14T10:26:28;96228.91;;;5.20;75.61
55424;BME280;41294;42.666;23.350;2023-02-14T10:28:54;96217.34;;;5.14;75.53
55424;BME280;41294;42.666;23.350;2023-02-14T10:33:55;96213.25;;;5.16;75.51
55424;BME280;41294;42.666;23.350;2023-02-14T10:36:28;96213.97;;;5.06;75.73
55424;BME280;41294;42.666;23.350;2023-02-14T10:39:07;96205.41;;;5.09;75.72
55424;BME280;41294;42.666;23.350;2023-02-14T10:41:59;96216.25;;;5.22;75.50
55424;BME280;41294;42.666;23.350;2023-02-14T10:52:31;96216.56;;;4.96;75.10
55424;BME280;41294;42.666;23.350;2023-02-14T10:55:09;96216.59;;;5.13;74.67
55424;BME280;41294;42.666;23.350;2023-02-14T10:57:43;96201.69;;;5.00;75.14
55424;BME280;41294;42.666;23.350;2023-02-14T11:00:26;96196.06;;;4.91;75.74
55424;BME280;41294;42.666;23.350;2023-02-14T11:02:58;96200.53;;;4.90;76.32
55424;BME280;41294;42.666;23.350;2023-02-14T11:05:30;96202.75;;;4.82;76.47
55424;BME280;41294;42.666;23.350;2023-02-14T11:07:57;96204.63;;;4.91;76.56
55424;BME280;41294;42.666;23.350;2023-02-14T11:10:26;96208.41;;;5.04;75.01
55424;BME280;41294;42.666;23.350;2023-02-14T11:12:53;96201.69;;;5.10;74.97
55424;BME280;41294;42.666;23.350;2023-02-14T11:15:25;96203.53;;;5.06;74.24
55424;BME280;41294;42.666;23.350;2023-02-14T11:18:19;96213.63;;;5.11;74.73
55424;BME280;41294;42.666;23.350;2023-02-14T11:23:43;96196.06;;;4.91;74.83
55424;BME280;41294;42.666;23.350;2023-02-14T11:26:15;96200.91;;;4.92;74.96
55424;BME280;41294;42.666;23.350;2023-02-14T11:28:53;96194.22;;;5.02;74.21
55424;BME280;41294;42.666;23.350;2023-02-14T11:31:39;96190.16;;;5.18;73.28
55424;BME280;41294;42.666;23.350;2023-02-14T11:34:31;96183.38;;;4.96;73.60
55424;BME280;41294;42.666;23.350;2023-02-14T11:36:58;96189.75;;;4.99;73.63
55424;BME280;41294;42.666;23.350;2023-02-14T11:39:32;96183.78;;;4.95;73.41
55424;BME280;41294;42.666;23.350;2023-02-14T11:42:02;96180.03;;;4.92;73.71
55424;BME280;41294;42.666;23.350;2023-02-14T11:44:32;96178.22;;;5.03;72.95
55424;BME280;41294;42.666;23.350;2023-02-14T11:47:19;96169.22;;;4.97;71.89
55424;BME280;41294;42.666;23.350;2023-02-14T11:49:59;96164.78;;;5.05;71.28
55424;BME280;41294;42.666;23.350;2023-02-14T11:52:31;96157.34;;;5.14;70.11
55424;BME280;41294;42.666;23.350;2023-02-14T11:54:58;96163.31;;;5.21;70.27
55424;BME280;41294;42.666;23.350;2023-02-14T11:57:37;96164.03;;;5.36;70.48
55424;BME280;41294;42.666;23.350;2023-02-14T12:00:13;96149.50;;;5.45;69.76
55424;BME280;41294;42.666;23.350;2023-02-14T12:02:43;96151.72;;;5.50;68.66
55424;BME280;41294;42.666;23.350;2023-02-14T12:05:20;96146.16;;;5.55;68.91
55424;BME280;41294;42.666;23.350;2023-02-14T12:07:53;96136.06;;;5.50;68.58
55424;BME280;41294;42.666;23.350;2023-02-14T12:10:26;96134.94;;;5.58;68.43
55424;BME280;41294;42.666;23.350;2023-02-14T12:13:21;96130.84;;;5.50;68.60
55424;BME280;41294;42.666;23.350;2023-02-14T12:15:52;96131.94;;;5.63;68.81
55424;BME280;41294;42.666;23.350;2023-02-14T12:26:54;96129.34;;;5.63;68.71
55424;BME280;41294;42.666;23.350;2023-02-14T12:29:31;96124.47;;;5.86;68.77
55424;BME280;41294;42.666;23.350;2023-02-14T12:32:06;96127.75;;;6.07;67.30
55424;BME280;41294;42.666;23.350;2023-02-14T12:34:38;96118.09;;;6.01;67.15
55424;BME280;41294;42.666;23.350;2023-02-14T12:37:16;96107.28;;;5.88;68.15
55424;BME280;41294;42.666;23.350;2023-02-14T12:40:09;96131.16;;;5.94;68.20
55424;BME280;41294;42.666;23.350;2023-02-14T12:42:58;96114.38;;;5.88;67.59
55424;BME280;41294;42.666;23.350;2023-02-14T12:56:25;96107.97;;;6.13;67.11
55424;BME280;41294;42.666;23.350;2023-02-14T13:01:32;96119.84;;;6.28;67.23
55424;BME280;41294;42.666;23.350;2023-02-14T13:22:45;96104.16;;;6.25;67.86
55424;BME280;41294;42.666;23.350;2023-02-14T13:25:24;96101.56;;;6.21;68.09
55424;BME280;41294;42.666;23.350;2023-02-14T13:28:00;96103.47;;;6.14;68.52
55424;BME280;41294;42.666;23.350;2023-02-14T13:30:32;96110.94;;;6.12;69.00
55424;BME280;41294;42.666;23.350;2023-02-14T13:33:05;96102.03;;;5.99;69.05
55424;BME280;41294;42.666;23.350;2023-02-14T13:35:32;96107.28;;;5.92;69.89
55424;BME280;41294;42.666;23.350;2023-02-14T13:38:02;96090.81;;;5.98;69.35
55424;BME280;41294;42.666;23.350;2023-02-14T13:40:30;96091.59;;;5.99;69.84
55424;BME280;41294;42.666;23.350;2023-02-14T13:43:00;96103.53;;;6.00;69.86
55424;BME280;41294;42.666;23.350;2023-02-14T13:48:17;96102.06;;;5.95;70.02
55424;BME280;41294;42.666;23.350;2023-02-14T13:50:57;96105.00;;;6.08;69.67
55424;BME280;41294;42.666;23.350;2023-02-14T13:56:03;96105.00;;;5.97;70.08
55424;BME280;41294;42.666;23.350;2023-02-14T13:58:28;96096.41;;;6.04;69.90
55424;BME280;41294;42.666;23.350;2023-02-14T14:00:55;96112.44;;;6.13;69.68
55424;BME280;41294;42.666;23.350;2023-02-14T14:16:56;96116.25;;;5.84;70.48
55424;BME280;41294;42.666;23.350;2023-02-14T14:22:09;96108.78;;;5.86;70.60
55424;BME280;41294;42.666;23.350;2023-02-14T14:24:37;96117.72;;;5.95;70.26
55424;BME280;41294;42.666;23.350;2023-02-14T14:27:15;96102.03;;;5.99;70.04
55424;BME280;41294;42.666;23.350;2023-02-14T14:32:23;96107.59;;;6.08;69.43
55424;BME280;41294;42.666;23.350;2023-02-14T14:34:51;96100.13;;;6.06;69.67
55424;BME280;41294;42.666;23.350;2023-02-14T14:37:20;96074.44;;;5.94;70.04
55424;BME280;41294;42.666;23.350;2023-02-14T14:39:55;96084.16;;;5.83;70.82
55424;BME280;41294;42.666;23.350;2023-02-14T14:42:23;96086.03;;;5.79;71.44
55424;BME280;41294;42.666;23.350;2023-02-14T14:47:29;96089.78;;;5.82;70.59
55424;BME280;41294;42.666;23.350;2023-02-14T14:50:05;96092.38;;;5.82;70.89
55424;BME280;41294;42.666;23.350;2023-02-14T14:52:38;96093.13;;;5.72;71.83
55424;BME280;41294;42.666;23.350;2023-02-14T14:55:06;96085.66;;;5.74;71.76
55424;BME280;41294;42.666;23.350;2023-02-14T14:57:37;96083.06;;;5.64;72.10
55424;BME280;41294;42.666;23.350;2023-02-14T15:00:06;96097.25;;;5.69;71.68
55424;BME280;41294;42.666;23.350;2023-02-14T15:02:33;96100.25;;;5.58;72.27
55424;BME280;41294;42.666;23.350;2023-02-14T15:05:30;96097.97;;;5.77;71.29
55424;BME280;41294;42.666;23.350;2023-02-14T15:07:57;96096.13;;;5.60;71.99
55424;BME280;41294;42.666;23.350;2023-02-14T15:10:25;96098.34;;;5.62;71.92
55424;BME280;41294;42.666;23.350;2023-02-14T15:12:52;96105.84;;;5.60;72.06
55424;BME280;41294;42.666;23.350;2023-02-14T15:15:40;96105.84;;;5.63;72.12
55424;BME280;41294;42.666;23.350;2023-02-14T15:18:06;96101.75;;;5.59;71.69
55424;BME280;41294;42.666;23.350;2023-02-14T15:20:32;96109.19;;;5.64;71.61
55424;BME280;41294;42.666;23.350;2023-02-14T15:23:00;96105.81;;;5.67;71.19
55424;BME280;41294;42.666;23.350;2023-02-14T15:25:34;96110.34;;;5.49;72.27
55424;BME280;41294;42.666;23.350;2023-02-14T15:28:01;96100.66;;;5.53;72.47
55424;BME280;41294;42.666;23.350;2023-02-14T15:30:33;96111.06;;;5.56;72.16
55424;BME280;41294;42.666;23.350;2023-02-14T15:33:02;96114.06;;;5.41;72.17
55424;BME280;41294;42.666;23.350;2023-02-14T15:35:33;96110.34;;;5.38;72.10